sensor_id;sensor_type;location;lat;lon;timestamp;temperature;humidity
41262;DHT22;29629;52.532;13.352;2023-12-04T00:01:43;-1.70;99.90
41262;DHT22;29629;52.532;13.352;2023-12-04T00:04:12;-1.60;99.90
41262;DHT22;29629;52.532;13.352;2023-12-04T00:06:40;-1.70;99.90
41262;DHT22;29629;52.532;13.352;2023-12-04T00:09:07;-1.80;99.90
41262;DHT22;29629;52.532;13.352;2023-12-04T00:11:34;-1.80;99.90
41262;DHT22;29629;52.532;13.352;2023-12-04T00:14:01;-1.80;99.90
41262;DHT22;29629;52.532;13.352;2023-12-04T00:16:27;-1.70;99.90
41262;DHT22;29629;52.532;13.352;2023-12-04T00:18:54;-1.70;99.90
41262;DHT22;29629;52.532;13.352;2023-12-04T00:21:23;-1.80;99.90
41262;DHT22;29629;52.532;13.352;2023-12-04T00:23:49;-1.80;99.90
41262;DHT22;29629;52.532;13.352;2023-12-04T00:26:16;-1.80;99.90
41262;DHT22;29629;52.532;13.352;2023-12-04T00:28:43;-1.90;99.90
41262;DHT22;29629;52.532;13.352;2023-12-04T00:31:10;-2.10;99.90
41262;DHT22;29629;52.532;13.352;2023-12-04T00:33:37;-2.00;99.90
41262;DHT22;29629;52.532;13.352;2023-12-04T00:36:04;-1.90;99.90
41262;DHT22;29629;52.532;13.352;2023-12-04T00:38:33;-2.00;99.90
41262;DHT22;29629;52.532;13.352;2023-12-04T00:41:00;-1.90;99.90
41262;DHT22;29629;52.532;13.352;2023-12-04T00:43:26;-1.90;99.90
41262;DHT22;29629;52.532;13.352;2023-12-04T00:45:53;-2.00;99.90
41262;DHT22;29629;52.532;13.352;2023-12-04T00:48:20;-2.00;99.90
41262;DHT22;29629;52.532;13.352;2023-12-04T00:50:47;-2.00;99.90
41262;DHT22;29629;52.532;13.352;2023-12-04T00:53:14;-2.00;99.90
41262;DHT22;29629;52.532;13.352;2023-12-04T00:55:42;-2.00;99.90
41262;DHT22;29629;52.532;13.352;2023-12-04T00:58:09;-2.10;99.90
41262;DHT22;29629;52.532;13.352;2023-12-04T01:00:36;-2.00;99.90
41262;DHT22;29629;52.532;13.352;2023-12-04T01:03:03;-2.00;99.90
41262;DHT22;29629;52.532;13.352;2023-12-04T01:05:30;-1.90;99.90
41262;DHT22;29629;52.532;13.352;2023-12-04T01:07:57;-2.00;99.90
41262;DHT22;29629;52.532;13.352;2023-12-04T01:10:24;-1.90;99.90
41262;DHT22;29629;52.532;13.352;2023-12-04T01:12:52;-1.90;99.90
41262;DHT22;29629;52.532;13.352;2023-12-04T01:15:19;-1.90;99.90
41262;DHT22;29629;52.532;13.352;2023-12-04T01:17:46;-1.90;99.90
41262;DHT22;29629;52.532;13.352;2023-12-04T01:20:13;-2.00;99.90
41262;DHT22;29629;52.532;13.352;2023-12-04T01:22:39;-2.10;99.90
41262;DHT22;29629;52.532;13.352;2023-12-04T01:25:08;-2.00;99.90
41262;DHT22;29629;52.532;13.352;2023-12-04T01:27:35;-2.00;99.90
41262;DHT22;29629;52.532;13.352;2023-12-04T01:30:05;-1.90;99.90
41262;DHT22;29629;52.532;13.352;2023-12-04T01:32:33;-2.00;99.90
41262;DHT22;29629;52.532;13.352;2023-12-04T01:35:01;-1.90;99.90
41262;DHT22;29629;52.532;13.352;2023-12-04T01:37:27;-1.90;99.90
41262;DHT22;29629;52.532;13.352;2023-12-04T01:39:54;-2.10;99.90
41262;DHT22;29629;52.532;13.352;2023-12-04T01:42:21;-2.00;99.90
41262;DHT22;29629;52.532;13.352;2023-12-04T01:44:48;-2.00;99.90
41262;DHT22;29629;52.532;13.352;2023-12-04T01:47:17;-2.00;99.90
41262;DHT22;29629;52.532;13.352;2023-12-04T01:49:45;-2.00;99.90
41262;DHT22;29629;52.532;13.352;2023-12-04T01:52:12;-2.00;99.90
41262;DHT22;29629;52.532;13.352;2023-12-04T01:54:39;-1.90;99.90
41262;DHT22;29629;52.532;13.352;2023-12-04T01:57:06;-2.00;99.90
41262;DHT22;29629;52.532;13.352;2023-12-04T01:59:33;-2.10;99.90
41262;DHT22;29629;52.532;13.352;2023-12-04T02:02:01;-1.90;99.90
41262;DHT22;29629;52.532;13.352;2023-12-04T02:04:31;-1.90;99.90
41262;DHT22;29629;52.532;13.352;2023-12-04T02:06:58;-2.00;99.90
41262;DHT22;29629;52.532;13.352;2023-12-04T02:09:25;-2.10;99.90
41262;DHT22;29629;52.532;13.352;2023-12-04T02:11:52;-2.10;99.90
41262;DHT22;29629;52.532;13.352;2023-12-04T02:14:19;-2.10;99.90
41262;DHT22;29629;52.532;13.352;2023-12-04T02:16:47;-1.90;99.90
41262;DHT22;29629;52.532;13.352;2023-12-04T02:19:15;-2.00;99.90
41262;DHT22;29629;52.532;13.352;2023-12-04T02:21:43;-2.00;99.90
41262;DHT22;29629;52.532;13.352;2023-12-04T02:24:11;-2.00;99.90
41262;DHT22;29629;52.532;13.352;2023-12-04T02:26:44;-1.90;99.90
41262;DHT22;29629;52.532;13.352;2023-12-04T02:29:17;-1.90;99.90
41262;DHT22;29629;52.532;13.352;2023-12-04T02:31:48;-2.00;99.90
41262;DHT22;29629;52.532;13.352;2023-12-04T02:34:18;-2.00;99.90
41262;DHT22;29629;52.532;13.352;2023-12-04T02:36:45;-2.00;99.90
41262;DHT22;29629;52.532;13.352;2023-12-04T02:39:15;-2.00;99.90
41262;DHT22;29629;52.532;13.352;2023-12-04T02:41:41;-2.10;99.90
41262;DHT22;29629;52.532;13.352;2023-12-04T02:44:08;-2.10;99.90
41262;DHT22;29629;52.532;13.352;2023-12-04T02:46:35;-2.10;99.90
41262;DHT22;29629;52.532;13.352;2023-12-04T02:49:02;-2.10;99.90
41262;DHT22;29629;52.532;13.352;2023-12-04T02:51:29;-2.20;99.90
41262;DHT22;29629;52.532;13.352;2023-12-04T02:53:56;-2.20;99.90
41262;DHT22;29629;52.532;13.352;2023-12-04T02:56:24;-2.20;99.90
41262;DHT22;29629;52.532;13.352;2023-12-04T02:58:51;-2.10;99.90
41262;DHT22;29629;52.532;13.352;2023-12-04T03:01:17;-2.20;99.90
41262;DHT22;29629;52.532;13.352;2023-12-04T03:03:44;-2.20;99.90
41262;DHT22;29629;52.532;13.352;2023-12-04T03:06:11;-2.10;99.90
41262;DHT22;29629;52.532;13.352;2023-12-04T03:08:41;-2.20;99.90
41262;DHT22;29629;52.532;13.352;2023-12-04T03:11:08;-2.20;99.90
41262;DHT22;29629;52.532;13.352;2023-12-04T03:13:36;-2.10;99.90
41262;DHT22;29629;52.532;13.352;2023-12-04T03:16:03;-2.10;99.90
41262;DHT22;29629;52.532;13.352;2023-12-04T03:18:30;-2.00;99.90
41262;DHT22;29629;52.532;13.352;2023-12-04T03:20:57;-2.10;99.90
41262;DHT22;29629;52.532;13.352;2023-12-04T03:23:24;-2.10;99.90
41262;DHT22;29629;52.532;13.352;2023-12-04T03:25:51;-2.20;99.90
41262;DHT22;29629;52.532;13.352;2023-12-04T03:28:18;-2.20;99.90
41262;DHT22;29629;52.532;13.352;2023-12-04T03:30:46;-2.20;99.90
41262;DHT22;29629;52.532;13.352;2023-12-04T03:33:13;-2.10;99.90
41262;DHT22;29629;52.532;13.352;2023-12-04T03:35:40;-2.20;99.90
41262;DHT22;29629;52.532;13.352;2023-12-04T03:38:07;-2.10;99.90
41262;DHT22;29629;52.532;13.352;2023-12-04T03:40:34;-2.10;99.90
41262;DHT22;29629;52.532;13.352;2023-12-04T03:43:01;-2.20;99.90
41262;DHT22;29629;52.532;13.352;2023-12-04T03:45:27;-2.20;99.90
41262;DHT22;29629;52.532;13.352;2023-12-04T03:47:56;-2.20;99.90
41262;DHT22;29629;52.532;13.352;2023-12-04T03:50:23;-2.20;99.90
41262;DHT22;29629;52.532;13.352;2023-12-04T03:52:49;-2.20;99.90
41262;DHT22;29629;52.532;13.352;2023-12-04T03:55:16;-2.30;99.90
41262;DHT22;29629;52.532;13.352;2023-12-04T03:57:45;-2.30;99.90
41262;DHT22;29629;52.532;13.352;2023-12-04T04:00:13;-2.30;99.90
41262;DHT22;29629;52.532;13.352;2023-12-04T04:02:42;-2.30;99.90
41262;DHT22;29629;52.532;13.352;2023-12-04T04:05:11;-2.30;99.90
41262;DHT22;29629;52.532;13.352;2023-12-04T04:07:37;-2.30;99.90
41262;DHT22;29629;52.532;13.352;2023-12-04T04:10:05;-2.30;99.90
41262;DHT22;29629;52.532;13.352;2023-12-04T04:12:32;-2.30;99.90
41262;DHT22;29629;52.532;13.352;2023-12-04T04:14:59;-2.30;99.90
41262;DHT22;29629;52.532;13.352;2023-12-04T04:17:26;-2.40;99.90
41262;DHT22;29629;52.532;13.352;2023-12-04T04:19:53;-2.40;99.90
41262;DHT22;29629;52.532;13.352;2023-12-04T04:22:22;-2.40;99.90
41262;DHT22;29629;52.532;13.352;2023-12-04T04:24:49;-2.40;99.90
41262;DHT22;29629;52.532;13.352;2023-12-04T04:27:16;-2.50;99.90
41262;DHT22;29629;52.532;13.352;2023-12-04T04:29:43;-2.40;99.90
41262;DHT22;29629;52.532;13.352;2023-12-04T04:32:10;-2.40;99.90
41262;DHT22;29629;52.532;13.352;2023-12-04T04:34:37;-2.40;99.90
41262;DHT22;29629;52.532;13.352;2023-12-04T04:37:04;-2.40;99.90
41262;DHT22;29629;52.532;13.352;2023-12-04T04:39:32;-2.50;99.90
41262;DHT22;29629;52.532;13.352;2023-12-04T04:41:59;-2.50;99.90
41262;DHT22;29629;52.532;13.352;2023-12-04T04:44:26;-2.40;99.90
41262;DHT22;29629;52.532;13.352;2023-12-04T04:46:52;-2.60;99.90
41262;DHT22;29629;52.532;13.352;2023-12-04T04:49:19;-2.60;99.90
41262;DHT22;29629;52.532;13.352;2023-12-04T04:51:46;-2.60;99.90
41262;DHT22;29629;52.532;13.352;2023-12-04T04:54:13;-2.50;99.90
41262;DHT22;29629;52.532;13.352;2023-12-04T04:56:41;-2.50;99.90
41262;DHT22;29629;52.532;13.352;2023-12-04T04:59:08;-2.50;99.90
41262;DHT22;29629;52.532;13.352;2023-12-04T05:01:35;-2.50;99.90
41262;DHT22;29629;52.532;13.352;2023-12-04T05:04:03;-2.50;99.90
41262;DHT22;29629;52.532;13.352;2023-12-04T05:06:30;-2.50;99.90
41262;DHT22;29629;52.532;13.352;2023-12-04T05:08:57;-2.50;99.90
41262;DHT22;29629;52.532;13.352;2023-12-04T05:11:24;-2.60;99.90
41262;DHT22;29629;52.532;13.352;2023-12-04T05:13:52;-2.60;99.90
41262;DHT22;29629;52.532;13.352;2023-12-04T05:16:19;-2.60;99.90
41262;DHT22;29629;52.532;13.352;2023-12-04T05:18:45;-2.50;99.90
41262;DHT22;29629;52.532;13.352;2023-12-04T05:21:12;-2.50;99.90
41262;DHT22;29629;52.532;13.352;2023-12-04T05:23:39;-2.50;99.90
41262;DHT22;29629;52.532;13.352;2023-12-04T05:26:07;-2.50;99.90
41262;DHT22;29629;52.532;13.352;2023-12-04T05:28:34;-2.50;99.90
41262;DHT22;29629;52.532;13.352;2023-12-04T05:31:03;-2.50;99.90
41262;DHT22;29629;52.532;13.352;2023-12-04T05:33:30;-2.50;99.90
41262;DHT22;29629;52.532;13.352;2023-12-04T05:35:57;-2.50;99.90
41262;DHT22;29629;52.532;13.352;2023-12-04T05:38:24;-2.40;99.90
41262;DHT22;29629;52.532;13.352;2023-12-04T05:40:51;-2.40;99.90
41262;DHT22;29629;52.532;13.352;2023-12-04T05:43:17;-2.40;99.90
41262;DHT22;29629;52.532;13.352;2023-12-04T05:45:45;-2.40;99.90
41262;DHT22;29629;52.532;13.352;2023-12-04T05:48:13;-2.40;99.90
41262;DHT22;29629;52.532;13.352;2023-12-04T05:50:40;-2.30;99.90
41262;DHT22;29629;52.532;13.352;2023-12-04T05:53:07;-2.20;99.90
41262;DHT22;29629;52.532;13.352;2023-12-04T05:55:34;-2.30;99.90
41262;DHT22;29629;52.532;13.352;2023-12-04T05:58:01;-2.10;99.90
41262;DHT22;29629;52.532;13.352;2023-12-04T06:00:28;-2.20;99.90
41262;DHT22;29629;52.532;13.352;2023-12-04T06:02:55;-2.20;99.90
41262;DHT22;29629;52.532;13.352;2023-12-04T06:05:23;-2.10;99.90
41262;DHT22;29629;52.532;13.352;2023-12-04T06:07:50;-2.10;99.90
41262;DHT22;29629;52.532;13.352;2023-12-04T06:10:17;-2.10;99.90
41262;DHT22;29629;52.532;13.352;2023-12-04T06:12:44;-2.10;99.90
41262;DHT22;29629;52.532;13.352;2023-12-04T06:15:11;-2.00;99.90
41262;DHT22;29629;52.532;13.352;2023-12-04T06:17:38;-2.00;99.90
41262;DHT22;29629;52.532;13.352;2023-12-04T06:20:06;-2.00;99.90
41262;DHT22;29629;52.532;13.352;2023-12-04T06:22:35;-2.00;99.90
41262;DHT22;29629;52.532;13.352;2023-12-04T06:25:02;-1.90;99.90
41262;DHT22;29629;52.532;13.352;2023-12-04T06:27:30;-1.90;99.90
41262;DHT22;29629;52.532;13.352;2023-12-04T06:29:57;-1.90;99.90
41262;DHT22;29629;52.532;13.352;2023-12-04T06:32:25;-1.90;99.90
41262;DHT22;29629;52.532;13.352;2023-12-04T06:34:52;-1.90;99.90
41262;DHT22;29629;52.532;13.352;2023-12-04T06:37:21;-1.90;99.90
41262;DHT22;29629;52.532;13.352;2023-12-04T06:39:50;-1.90;99.90
41262;DHT22;29629;52.532;13.352;2023-12-04T06:42:19;-1.90;99.90
41262;DHT22;29629;52.532;13.352;2023-12-04T06:44:47;-2.00;99.90
41262;DHT22;29629;52.532;13.352;2023-12-04T06:47:19;-1.90;99.90
41262;DHT22;29629;52.532;13.352;2023-12-04T06:49:48;-1.90;99.90
41262;DHT22;29629;52.532;13.352;2023-12-04T06:52:15;-1.90;99.90
41262;DHT22;29629;52.532;13.352;2023-12-04T06:54:42;-1.80;99.90
41262;DHT22;29629;52.532;13.352;2023-12-04T06:57:10;-1.80;99.90
41262;DHT22;29629;52.532;13.352;2023-12-04T06:59:40;-1.80;99.90
41262;DHT22;29629;52.532;13.352;2023-12-04T07:02:07;-1.70;99.90
41262;DHT22;29629;52.532;13.352;2023-12-04T07:04:34;-1.60;99.90
41262;DHT22;29629;52.532;13.352;2023-12-04T07:07:01;-1.60;99.90
41262;DHT22;29629;52.532;13.352;2023-12-04T07:09:30;-1.60;99.90
41262;DHT22;29629;52.532;13.352;2023-12-04T07:11:57;-1.60;99.90
41262;DHT22;29629;52.532;13.352;2023-12-04T07:14:26;-1.50;99.90
41262;DHT22;29629;52.532;13.352;2023-12-04T07:16:53;-1.50;99.90
41262;DHT22;29629;52.532;13.352;2023-12-04T07:19:20;-1.50;99.90
41262;DHT22;29629;52.532;13.352;2023-12-04T07:21:47;-1.40;99.90
41262;DHT22;29629;52.532;13.352;2023-12-04T07:24:14;-1.40;99.90
41262;DHT22;29629;52.532;13.352;2023-12-04T07:26:42;-1.40;99.90
41262;DHT22;29629;52.532;13.352;2023-12-04T07:29:08;-1.40;99.90
41262;DHT22;29629;52.532;13.352;2023-12-04T07:31:37;-1.30;99.90
41262;DHT22;29629;52.532;13.352;2023-12-04T07:34:04;-1.30;99.90
41262;DHT22;29629;52.532;13.352;2023-12-04T07:36:31;-1.30;99.90
41262;DHT22;29629;52.532;13.352;2023-12-04T07:38:58;-1.20;99.90
41262;DHT22;29629;52.532;13.352;2023-12-04T07:41:24;-1.20;99.90
41262;DHT22;29629;52.532;13.352;2023-12-04T07:43:51;-1.20;99.90
41262;DHT22;29629;52.532;13.352;2023-12-04T07:46:20;-1.10;99.90
41262;DHT22;29629;52.532;13.352;2023-12-04T07:48:48;-1.20;99.90
41262;DHT22;29629;52.532;13.352;2023-12-04T07:51:15;-1.10;99.90
41262;DHT22;29629;52.532;13.352;2023-12-04T07:53:42;-1.10;99.90
41262;DHT22;29629;52.532;13.352;2023-12-04T07:56:11;-1.10;99.90
41262;DHT22;29629;52.532;13.352;2023-12-04T07:58:38;-1.10;99.90
41262;DHT22;29629;52.532;13.352;2023-12-04T08:01:05;-1.10;99.90
41262;DHT22;29629;52.532;13.352;2023-12-04T08:03:32;-1.10;99.90
41262;DHT22;29629;52.532;13.352;2023-12-04T08:06:00;-1.10;99.90
41262;DHT22;29629;52.532;13.352;2023-12-04T08:08:28;-1.00;99.90
41262;DHT22;29629;52.532;13.352;2023-12-04T08:10:56;-1.00;99.90
41262;DHT22;29629;52.532;13.352;2023-12-04T08:13:24;-1.00;99.90
41262;DHT22;29629;52.532;13.352;2023-12-04T08:15:52;-1.00;99.90
41262;DHT22;29629;52.532;13.352;2023-12-04T08:18:20;-0.90;99.90
41262;DHT22;29629;52.532;13.352;2023-12-04T08:20:47;-0.90;99.90
41262;DHT22;29629;52.532;13.352;2023-12-04T08:23:15;-0.90;99.90
41262;DHT22;29629;52.532;13.352;2023-12-04T08:25:43;-0.90;99.90
41262;DHT22;29629;52.532;13.352;2023-12-04T08:28:10;-0.80;99.90
41262;DHT22;29629;52.532;13.352;2023-12-04T08:30:38;-0.90;99.90
41262;DHT22;29629;52.532;13.352;2023-12-04T08:33:05;-0.80;99.90
41262;DHT22;29629;52.532;13.352;2023-12-04T08:35:32;-0.80;99.90
41262;DHT22;29629;52.532;13.352;2023-12-04T08:37:59;-0.80;99.90
41262;DHT22;29629;52.532;13.352;2023-12-04T08:40:27;-0.70;99.90
41262;DHT22;29629;52.532;13.352;2023-12-04T08:42:54;-0.70;99.90
41262;DHT22;29629;52.532;13.352;2023-12-04T08:45:21;-0.70;99.90
41262;DHT22;29629;52.532;13.352;2023-12-04T08:47:48;-0.60;99.90
41262;DHT22;29629;52.532;13.352;2023-12-04T08:50:15;-0.50;99.90
41262;DHT22;29629;52.532;13.352;2023-12-04T08:52:43;-0.60;99.90
41262;DHT22;29629;52.532;13.352;2023-12-04T08:55:10;-0.40;99.90
41262;DHT22;29629;52.532;13.352;2023-12-04T08:57:39;-0.50;99.90
41262;DHT22;29629;52.532;13.352;2023-12-04T09:00:06;-0.60;99.90
41262;DHT22;29629;52.532;13.352;2023-12-04T09:02:34;-0.50;99.90
41262;DHT22;29629;52.532;13.352;2023-12-04T09:05:01;-0.50;99.90
41262;DHT22;29629;52.532;13.352;2023-12-04T09:07:28;-0.40;99.90
41262;DHT22;29629;52.532;13.352;2023-12-04T09:09:55;-0.40;99.90
41262;DHT22;29629;52.532;13.352;2023-12-04T09:12:22;-0.30;99.90
41262;DHT22;29629;52.532;13.352;2023-12-04T09:14:50;-0.40;99.90
41262;DHT22;29629;52.532;13.352;2023-12-04T09:17:17;-0.30;99.90
41262;DHT22;29629;52.532;13.352;2023-12-04T09:19:46;-0.30;99.90
41262;DHT22;29629;52.532;13.352;2023-12-04T09:22:12;-0.30;99.90
41262;DHT22;29629;52.532;13.352;2023-12-04T09:24:39;-0.30;99.90
41262;DHT22;29629;52.532;13.352;2023-12-04T09:27:06;-0.30;99.90
41262;DHT22;29629;52.532;13.352;2023-12-04T09:29:33;-0.30;99.90
41262;DHT22;29629;52.532;13.352;2023-12-04T09:32:02;-0.30;99.90
41262;DHT22;29629;52.532;13.352;2023-12-04T09:34:29;-0.30;99.90
41262;DHT22;29629;52.532;13.352;2023-12-04T09:36:55;-0.20;99.90
41262;DHT22;29629;52.532;13.352;2023-12-04T09:39:22;-0.30;99.90
41262;DHT22;29629;52.532;13.352;2023-12-04T09:41:50;-0.10;99.90
41262;DHT22;29629;52.532;13.352;2023-12-04T09:44:17;-0.10;99.90
41262;DHT22;29629;52.532;13.352;2023-12-04T09:46:45;-0.10;99.90
41262;DHT22;29629;52.532;13.352;2023-12-04T09:49:14;-0.10;99.90
41262;DHT22;29629;52.532;13.352;2023-12-04T09:51:42;-0.10;99.90
41262;DHT22;29629;52.532;13.352;2023-12-04T09:54:09;-0.10;99.90
41262;DHT22;29629;52.532;13.352;2023-12-04T09:56:36;-0.10;99.90
41262;DHT22;29629;52.532;13.352;2023-12-04T09:59:05;-0.10;99.90
41262;DHT22;29629;52.532;13.352;2023-12-04T10:01:36;0.00;99.90
41262;DHT22;29629;52.532;13.352;2023-12-04T10:04:03;0.00;99.90
41262;DHT22;29629;52.532;13.352;2023-12-04T10:06:33;-0.10;99.90
41262;DHT22;29629;52.532;13.352;2023-12-04T10:09:01;-0.10;99.90
41262;DHT22;29629;52.532;13.352;2023-12-04T10:11:28;0.00;99.90
41262;DHT22;29629;52.532;13.352;2023-12-04T10:13:56;0.00;99.90
41262;DHT22;29629;52.532;13.352;2023-12-04T10:16:33;0.10;99.90
41262;DHT22;29629;52.532;13.352;2023-12-04T10:19:19;0.30;99.90
41262;DHT22;29629;52.532;13.352;2023-12-04T10:21:48;0.10;99.90
41262;DHT22;29629;52.532;13.352;2023-12-04T10:24:29;0.20;99.90
41262;DHT22;29629;52.532;13.352;2023-12-04T10:26:57;0.20;99.90
41262;DHT22;29629;52.532;13.352;2023-12-04T10:29:27;0.10;99.90
41262;DHT22;29629;52.532;13.352;2023-12-04T10:31:56;0.20;99.90
41262;DHT22;29629;52.532;13.352;2023-12-04T10:34:25;0.20;99.90
41262;DHT22;29629;52.532;13.352;2023-12-04T10:36:53;0.30;99.90
41262;DHT22;29629;52.532;13.352;2023-12-04T10:39:23;0.10;99.90
41262;DHT22;29629;52.532;13.352;2023-12-04T10:42:01;0.20;99.90
41262;DHT22;29629;52.532;13.352;2023-12-04T10:44:30;0.10;99.90
41262;DHT22;29629;52.532;13.352;2023-12-04T10:46:59;0.20;99.90
41262;DHT22;29629;52.532;13.352;2023-12-04T10:49:27;0.20;99.90
41262;DHT22;29629;52.532;13.352;2023-12-04T10:51:57;0.30;99.90
41262;DHT22;29629;52.532;13.352;2023-12-04T10:54:25;0.30;99.90
41262;DHT22;29629;52.532;13.352;2023-12-04T10:56:52;0.50;99.90
41262;DHT22;29629;52.532;13.352;2023-12-04T10:59:26;0.50;99.90
41262;DHT22;29629;52.532;13.352;2023-12-04T11:01:54;0.40;99.90
41262;DHT22;29629;52.532;13.352;2023-12-04T11:04:24;0.40;99.90
41262;DHT22;29629;52.532;13.352;2023-12-04T11:06:53;0.40;99.90
41262;DHT22;29629;52.532;13.352;2023-12-04T11:09:22;0.50;99.90
41262;DHT22;29629;52.532;13.352;2023-12-04T11:11:55;0.50;99.90
41262;DHT22;29629;52.532;13.352;2023-12-04T11:14:26;0.50;99.90
41262;DHT22;29629;52.532;13.352;2023-12-04T11:17:04;0.60;99.90
41262;DHT22;29629;52.532;13.352;2023-12-04T11:19:32;0.70;99.90
41262;DHT22;29629;52.532;13.352;2023-12-04T11:22:02;0.50;99.90
41262;DHT22;29629;52.532;13.352;2023-12-04T11:24:31;0.40;99.90
41262;DHT22;29629;52.532;13.352;2023-12-04T11:26:59;0.40;99.90
41262;DHT22;29629;52.532;13.352;2023-12-04T11:29:27;0.40;99.90
41262;DHT22;29629;52.532;13.352;2023-12-04T11:31:54;0.40;99.90
41262;DHT22;29629;52.532;13.352;2023-12-04T11:34:21;0.50;99.90
41262;DHT22;29629;52.532;13.352;2023-12-04T11:36:48;0.50;99.90
41262;DHT22;29629;52.532;13.352;2023-12-04T11:39:15;0.40;99.90
41262;DHT22;29629;52.532;13.352;2023-12-04T11:41:43;0.60;99.90
41262;DHT22;29629;52.532;13.352;2023-12-04T11:44:13;0.60;99.90
41262;DHT22;29629;52.532;13.352;2023-12-04T11:46:55;0.50;99.90
41262;DHT22;29629;52.532;13.352;2023-12-04T11:49:30;0.70;99.90
41262;DHT22;29629;52.532;13.352;2023-12-04T11:51:58;0.60;99.90
41262;DHT22;29629;52.532;13.352;2023-12-04T11:54:27;0.70;99.90
41262;DHT22;29629;52.532;13.352;2023-12-04T11:57:21;0.70;99.90
41262;DHT22;29629;52.532;13.352;2023-12-04T11:59:49;0.90;99.90
41262;DHT22;29629;52.532;13.352;2023-12-04T12:02:18;0.80;99.90
41262;DHT22;29629;52.532;13.352;2023-12-04T12:04:45;0.80;99.90
41262;DHT22;29629;52.532;13.352;2023-12-04T12:07:12;0.80;99.90
41262;DHT22;29629;52.532;13.352;2023-12-04T12:09:39;0.70;99.90
41262;DHT22;29629;52.532;13.352;2023-12-04T12:12:06;0.80;99.90
41262;DHT22;29629;52.532;13.352;2023-12-04T12:14:35;0.70;99.90
41262;DHT22;29629;52.532;13.352;2023-12-04T12:17:03;0.80;99.90
41262;DHT22;29629;52.532;13.352;2023-12-04T12:19:30;0.80;99.90
41262;DHT22;29629;52.532;13.352;2023-12-04T12:21:57;0.80;99.90
41262;DHT22;29629;52.532;13.352;2023-12-04T12:24:24;0.80;99.90
41262;DHT22;29629;52.532;13.352;2023-12-04T12:26:52;0.60;99.90
41262;DHT22;29629;52.532;13.352;2023-12-04T12:29:20;0.60;99.90
41262;DHT22;29629;52.532;13.352;2023-12-04T12:31:48;0.60;99.90
41262;DHT22;29629;52.532;13.352;2023-12-04T12:34:17;0.70;99.90
41262;DHT22;29629;52.532;13.352;2023-12-04T12:36:44;0.60;99.90
41262;DHT22;29629;52.532;13.352;2023-12-04T12:39:11;0.60;99.90
41262;DHT22;29629;52.532;13.352;2023-12-04T12:41:38;0.60;99.90
41262;DHT22;29629;52.532;13.352;2023-12-04T12:44:05;0.80;99.90
41262;DHT22;29629;52.532;13.352;2023-12-04T12:46:33;0.70;99.90
41262;DHT22;29629;52.532;13.352;2023-12-04T12:49:01;0.80;99.90
41262;DHT22;29629;52.532;13.352;2023-12-04T12:51:30;0.70;99.90
41262;DHT22;29629;52.532;13.352;2023-12-04T12:53:57;0.80;99.90
41262;DHT22;29629;52.532;13.352;2023-12-04T12:56:25;0.80;99.90
41262;DHT22;29629;52.532;13.352;2023-12-04T12:58:53;0.80;99.90
41262;DHT22;29629;52.532;13.352;2023-12-04T13:01:22;0.70;99.90
41262;DHT22;29629;52.532;13.352;2023-12-04T13:03:50;0.70;99.90
41262;DHT22;29629;52.532;13.352;2023-12-04T13:06:19;0.70;99.90
41262;DHT22;29629;52.532;13.352;2023-12-04T13:08:46;0.80;99.90
41262;DHT22;29629;52.532;13.352;2023-12-04T13:11:12;0.80;99.90
41262;DHT22;29629;52.532;13.352;2023-12-04T13:13:39;0.80;99.90
41262;DHT22;29629;52.532;13.352;2023-12-04T13:16:07;0.80;99.90
41262;DHT22;29629;52.532;13.352;2023-12-04T13:18:34;0.80;99.90
41262;DHT22;29629;52.532;13.352;2023-12-04T13:21:01;0.80;99.90
41262;DHT22;29629;52.532;13.352;2023-12-04T13:23:30;0.60;99.90
41262;DHT22;29629;52.532;13.352;2023-12-04T13:25:57;0.70;99.90
41262;DHT22;29629;52.532;13.352;2023-12-04T13:28:24;0.70;99.90
41262;DHT22;29629;52.532;13.352;2023-12-04T13:30:51;0.70;99.90
41262;DHT22;29629;52.532;13.352;2023-12-04T13:33:19;0.70;99.90
41262;DHT22;29629;52.532;13.352;2023-12-04T13:35:46;0.70;99.90
41262;DHT22;29629;52.532;13.352;2023-12-04T13:38:12;0.60;99.90
41262;DHT22;29629;52.532;13.352;2023-12-04T13:40:42;0.60;99.90
41262;DHT22;29629;52.532;13.352;2023-12-04T13:43:18;0.60;99.90
41262;DHT22;29629;52.532;13.352;2023-12-04T13:46:02;0.60;99.90
41262;DHT22;29629;52.532;13.352;2023-12-04T13:48:35;0.70;99.90
41262;DHT22;29629;52.532;13.352;2023-12-04T13:51:06;0.70;99.90
41262;DHT22;29629;52.532;13.352;2023-12-04T13:53:33;0.70;99.90
41262;DHT22;29629;52.532;13.352;2023-12-04T13:56:03;0.60;99.90
41262;DHT22;29629;52.532;13.352;2023-12-04T13:58:50;0.60;99.90
41262;DHT22;29629;52.532;13.352;2023-12-04T14:01:22;0.60;99.90
41262;DHT22;29629;52.532;13.352;2023-12-04T14:03:50;0.60;99.90
41262;DHT22;29629;52.532;13.352;2023-12-04T14:06:17;0.60;99.90
41262;DHT22;29629;52.532;13.352;2023-12-04T14:08:45;0.60;99.90
41262;DHT22;29629;52.532;13.352;2023-12-04T14:11:14;0.60;99.90
41262;DHT22;29629;52.532;13.352;2023-12-04T14:13:40;0.60;99.90
41262;DHT22;29629;52.532;13.352;2023-12-04T14:16:07;0.50;99.90
41262;DHT22;29629;52.532;13.352;2023-12-04T14:18:35;0.50;99.90
41262;DHT22;29629;52.532;13.352;2023-12-04T14:21:02;0.60;99.90
41262;DHT22;29629;52.532;13.352;2023-12-04T14:23:29;0.60;99.90
41262;DHT22;29629;52.532;13.352;2023-12-04T14:25:56;0.50;99.90
41262;DHT22;29629;52.532;13.352;2023-12-04T14:28:24;0.50;99.90
41262;DHT22;29629;52.532;13.352;2023-12-04T14:30:51;0.50;99.90
41262;DHT22;29629;52.532;13.352;2023-12-04T14:33:18;0.50;99.90
41262;DHT22;29629;52.532;13.352;2023-12-04T14:35:45;0.50;99.90
41262;DHT22;29629;52.532;13.352;2023-12-04T14:38:12;0.50;99.90
41262;DHT22;29629;52.532;13.352;2023-12-04T14:40:40;0.50;99.90
41262;DHT22;29629;52.532;13.352;2023-12-04T14:43:07;0.50;99.90
41262;DHT22;29629;52.532;13.352;2023-12-04T14:45:36;0.50;99.90
41262;DHT22;29629;52.532;13.352;2023-12-04T14:48:03;0.50;99.90
41262;DHT22;29629;52.532;13.352;2023-12-04T14:50:32;0.40;99.90
41262;DHT22;29629;52.532;13.352;2023-12-04T14:52:59;0.40;99.90
41262;DHT22;29629;52.532;13.352;2023-12-04T14:55:40;0.40;99.90
41262;DHT22;29629;52.532;13.352;2023-12-04T14:58:41;0.50;99.90
41262;DHT22;29629;52.532;13.352;2023-12-04T15:01:46;0.50;99.90
41262;DHT22;29629;52.532;13.352;2023-12-04T15:04:31;0.40;99.90
41262;DHT22;29629;52.532;13.352;2023-12-04T15:07:11;0.50;99.90
41262;DHT22;29629;52.532;13.352;2023-12-04T15:09:56;0.40;99.90
41262;DHT22;29629;52.532;13.352;2023-12-04T15:12:52;0.40;99.90
41262;DHT22;29629;52.532;13.352;2023-12-04T15:15:58;0.40;99.90
41262;DHT22;29629;52.532;13.352;2023-12-04T15:18:53;0.40;99.90
41262;DHT22;29629;52.532;13.352;2023-12-04T15:21:43;0.50;99.90
41262;DHT22;29629;52.532;13.352;2023-12-04T15:24:09;0.40;99.90
41262;DHT22;29629;52.532;13.352;2023-12-04T15:26:36;0.40;99.90
41262;DHT22;29629;52.532;13.352;2023-12-04T15:29:02;0.50;99.90